Terminal Aerodrome Forecast
Issued by NWS Wilmington, NC

Current Version | Previous Version | Graphics & Text | Print | Product List | Glossary Off
Versions: 1 2 3 4 5 6 7 8 9 10 11 12 13 14 15 16 17 18 19 20 21 22 23 24 25

000
FTUS42 KILM 251728
TAFMYR
TAF
KMYR 251728Z 2518/2618 09009KT P6SM VCSH BKN025 OVC040
     FM260200 07008KT P6SM BKN015
     FM260600 06008KT P6SM SCT015 BKN100
      TEMPO 2606/2610 BKN015
     FM261200 06007KT P6SM SCT100=

USA.gov is the U.S. government's official web portal to all federal, state and local government web resources and services.